sensor_id;sensor_type;location;lat;lon;timestamp;pressure;altitude;pressure_sealevel;temperature;humidity
56721;BME280;53183;47.412;18.884;2023-01-27T00:01:08;99288.56;;;0.80;85.76
56721;BME280;53183;47.412;18.884;2023-01-27T00:03:35;99282.69;;;0.68;86.79
56721;BME280;53183;47.412;18.884;2023-01-27T00:06:03;99287.94;;;0.65;86.86
56721;BME280;53183;47.412;18.884;2023-01-27T00:08:30;99286.28;;;0.63;87.84
56721;BME280;53183;47.412;18.884;2023-01-27T00:10:59;99283.72;;;0.60;87.48
56721;BME280;53183;47.412;18.884;2023-01-27T00:13:45;99282.91;;;0.56;88.14
56721;BME280;53183;47.412;18.884;2023-01-27T00:16:13;99278.56;;;0.57;87.85
56721;BME280;53183;47.412;18.884;2023-01-27T00:18:40;99277.06;;;0.43;88.28
56721;BME280;53183;47.412;18.884;2023-01-27T00:21:07;99277.13;;;0.39;89.02
56721;BME280;53183;47.412;18.884;2023-01-27T00:23:53;99278.81;;;0.41;88.44
56721;BME280;53183;47.412;18.884;2023-01-27T00:26:39;99273.69;;;0.37;89.37
56721;BME280;53183;47.412;18.884;2023-01-27T00:29:06;99272.00;;;0.33;89.84
56721;BME280;53183;47.412;18.884;2023-01-27T00:31:33;99271.81;;;0.46;88.78
56721;BME280;53183;47.412;18.884;2023-01-27T00:34:19;99267.47;;;0.47;88.87
56721;BME280;53183;47.412;18.884;2023-01-27T00:36:47;99267.59;;;0.38;90.82
56721;BME280;53183;47.412;18.884;2023-01-27T00:39:14;99262.31;;;0.42;89.97
56721;BME280;53183;47.412;18.884;2023-01-27T00:41:42;99265.84;;;0.38;90.64
56721;BME280;53183;47.412;18.884;2023-01-27T00:44:09;99270.16;;;0.41;90.56
56721;BME280;53183;47.412;18.884;2023-01-27T00:46:39;99270.13;;;0.42;90.41
56721;BME280;53183;47.412;18.884;2023-01-27T00:49:08;99273.59;;;0.43;91.11
56721;BME280;53183;47.412;18.884;2023-01-27T00:51:36;99275.34;;;0.41;91.56
56721;BME280;53183;47.412;18.884;2023-01-27T00:54:03;99275.31;;;0.44;91.20
56721;BME280;53183;47.412;18.884;2023-01-27T00:56:31;99267.41;;;0.49;90.28
56721;BME280;53183;47.412;18.884;2023-01-27T00:58:59;99269.87;;;0.59;88.93
56721;BME280;53183;47.412;18.884;2023-01-27T01:01:26;99276.81;;;0.57;89.92
56721;BME280;53183;47.412;18.884;2023-01-27T01:03:53;99273.28;;;0.61;88.74
56721;BME280;53183;47.412;18.884;2023-01-27T01:06:21;99275.97;;;0.55;89.65
56721;BME280;53183;47.412;18.884;2023-01-27T01:08:48;99266.34;;;0.62;88.34
56721;BME280;53183;47.412;18.884;2023-01-27T01:11:17;99275.88;;;0.63;88.35
56721;BME280;53183;47.412;18.884;2023-01-27T01:13:45;99266.41;;;0.57;89.28
56721;BME280;53183;47.412;18.884;2023-01-27T01:16:16;99270.00;;;0.50;90.03
56721;BME280;53183;47.412;18.884;2023-01-27T01:18:45;99267.38;;;0.52;89.34
56721;BME280;53183;47.412;18.884;2023-01-27T01:21:12;99275.31;;;0.44;90.18
56721;BME280;53183;47.412;18.884;2023-01-27T01:23:41;99269.16;;;0.48;89.21
56721;BME280;53183;47.412;18.884;2023-01-27T01:26:09;99273.53;;;0.46;89.63
56721;BME280;53183;47.412;18.884;2023-01-27T01:28:37;99267.47;;;0.45;88.25
56721;BME280;53183;47.412;18.884;2023-01-27T01:31:06;99260.38;;;0.57;86.80
56721;BME280;53183;47.412;18.884;2023-01-27T01:33:34;99263.06;;;0.51;86.41
56721;BME280;53183;47.412;18.884;2023-01-27T01:36:05;99256.06;;;0.54;82.01
56721;BME280;53183;47.412;18.884;2023-01-27T01:38:35;99259.56;;;0.53;81.84
56721;BME280;53183;47.412;18.884;2023-01-27T01:41:06;99251.56;;;0.62;81.04
56721;BME280;53183;47.412;18.884;2023-01-27T01:43:34;99259.38;;;0.62;81.52
56721;BME280;53183;47.412;18.884;2023-01-27T01:46:01;99255.94;;;0.62;81.93
56721;BME280;53183;47.412;18.884;2023-01-27T01:48:34;99255.22;;;0.54;83.01
56721;BME280;53183;47.412;18.884;2023-01-27T01:51:08;99252.66;;;0.51;83.09
56721;BME280;53183;47.412;18.884;2023-01-27T01:53:39;99264.00;;;0.46;84.27
56721;BME280;53183;47.412;18.884;2023-01-27T01:56:13;99258.81;;;0.46;84.22
56721;BME280;53183;47.412;18.884;2023-01-27T01:58:43;99258.62;;;0.57;82.75
56721;BME280;53183;47.412;18.884;2023-01-27T02:01:11;99258.56;;;0.59;82.79
56721;BME280;53183;47.412;18.884;2023-01-27T02:03:41;99255.22;;;0.52;84.01
56721;BME280;53183;47.412;18.884;2023-01-27T02:06:11;99254.28;;;0.58;83.42
56721;BME280;53183;47.412;18.884;2023-01-27T02:08:43;99252.66;;;0.51;84.34
56721;BME280;53183;47.412;18.884;2023-01-27T02:11:11;99246.72;;;0.44;85.34
56721;BME280;53183;47.412;18.884;2023-01-27T02:13:39;99244.94;;;0.46;84.74
56721;BME280;53183;47.412;18.884;2023-01-27T02:16:07;99241.44;;;0.49;84.85
56721;BME280;53183;47.412;18.884;2023-01-27T02:18:37;99243.91;;;0.56;84.47
56721;BME280;53183;47.412;18.884;2023-01-27T02:21:05;99233.75;;;0.41;85.53
56721;BME280;53183;47.412;18.884;2023-01-27T02:23:36;99233.06;;;0.31;86.49
56721;BME280;53183;47.412;18.884;2023-01-27T02:26:10;99226.19;;;0.27;88.36
56721;BME280;53183;47.412;18.884;2023-01-27T02:28:40;99224.47;;;0.26;89.53
56721;BME280;53183;47.412;18.884;2023-01-27T02:31:08;99222.69;;;0.30;88.35
56721;BME280;53183;47.412;18.884;2023-01-27T02:33:35;99215.75;;;0.29;89.13
56721;BME280;53183;47.412;18.884;2023-01-27T02:36:06;99218.19;;;0.39;86.52
56721;BME280;53183;47.412;18.884;2023-01-27T02:38:38;99212.16;;;0.37;86.18
56721;BME280;53183;47.412;18.884;2023-01-27T02:41:08;99200.28;;;0.22;88.37
56721;BME280;53183;47.412;18.884;2023-01-27T02:43:38;99208.25;;;0.12;88.97
56721;BME280;53183;47.412;18.884;2023-01-27T02:46:06;99203.19;;;0.04;90.69
56721;BME280;53183;47.412;18.884;2023-01-27T02:48:33;99201.44;;;0.03;91.03
56721;BME280;53183;47.412;18.884;2023-01-27T02:51:01;99186.75;;;0.04;90.62
56721;BME280;53183;47.412;18.884;2023-01-27T02:53:29;99193.56;;;0.11;88.82
56721;BME280;53183;47.412;18.884;2023-01-27T02:55:56;99193.78;;;-0.03;88.72
56721;BME280;53183;47.412;18.884;2023-01-27T02:58:24;99192.78;;;0.04;87.58
56721;BME280;53183;47.412;18.884;2023-01-27T03:00:51;99197.19;;;0.01;86.97
56721;BME280;53183;47.412;18.884;2023-01-27T03:03:18;99189.44;;;-0.03;86.70
56721;BME280;53183;47.412;18.884;2023-01-27T03:05:45;99194.84;;;-0.18;86.89
56721;BME280;53183;47.412;18.884;2023-01-27T03:08:13;99190.56;;;-0.20;86.84
56721;BME280;53183;47.412;18.884;2023-01-27T03:10:41;99193.97;;;-0.15;85.29
56721;BME280;53183;47.412;18.884;2023-01-27T03:13:09;99187.91;;;-0.17;85.01
56721;BME280;53183;47.412;18.884;2023-01-27T03:15:38;99176.81;;;-0.27;86.12
56721;BME280;53183;47.412;18.884;2023-01-27T03:18:24;99188.16;;;-0.33;86.74
56721;BME280;53183;47.412;18.884;2023-01-27T03:20:58;99177.78;;;-0.34;87.34
56721;BME280;53183;47.412;18.884;2023-01-27T03:23:26;99173.50;;;-0.35;87.52
56721;BME280;53183;47.412;18.884;2023-01-27T03:25:54;99173.56;;;-0.43;88.47
56721;BME280;53183;47.412;18.884;2023-01-27T03:28:22;99171.88;;;-0.42;89.28
56721;BME280;53183;47.412;18.884;2023-01-27T03:30:51;99169.31;;;-0.47;89.49
56721;BME280;53183;47.412;18.884;2023-01-27T03:33:18;99164.03;;;-0.41;88.87
56721;BME280;53183;47.412;18.884;2023-01-27T03:35:51;99169.31;;;-0.45;88.68
56721;BME280;53183;47.412;18.884;2023-01-27T03:38:38;99165.75;;;-0.40;87.88
56721;BME280;53183;47.412;18.884;2023-01-27T03:41:23;99164.09;;;-0.44;86.84
56721;BME280;53183;47.412;18.884;2023-01-27T03:44:09;99162.22;;;-0.33;86.11
56721;BME280;53183;47.412;18.884;2023-01-27T03:46:55;99156.00;;;-0.22;85.60
56721;BME280;53183;47.412;18.884;2023-01-27T03:49:23;99151.66;;;-0.22;85.43
56721;BME280;53183;47.412;18.884;2023-01-27T03:51:50;99154.19;;;-0.19;84.71
56721;BME280;53183;47.412;18.884;2023-01-27T03:54:17;99151.56;;;-0.16;84.24
56721;BME280;53183;47.412;18.884;2023-01-27T03:56:45;99145.56;;;-0.21;84.85
56721;BME280;53183;47.412;18.884;2023-01-27T03:59:16;99147.25;;;-0.20;84.14
56721;BME280;53183;47.412;18.884;2023-01-27T04:01:43;99140.22;;;-0.13;83.90
56721;BME280;53183;47.412;18.884;2023-01-27T04:04:11;99135.03;;;-0.12;83.80
56721;BME280;53183;47.412;18.884;2023-01-27T04:06:57;99138.44;;;-0.08;83.41
56721;BME280;53183;47.412;18.884;2023-01-27T04:09:28;99133.44;;;-0.20;85.12
56721;BME280;53183;47.412;18.884;2023-01-27T04:11:56;99133.25;;;-0.08;83.52
56721;BME280;53183;47.412;18.884;2023-01-27T04:14:38;99132.56;;;-0.21;84.53
56721;BME280;53183;47.412;18.884;2023-01-27T04:17:09;99131.75;;;-0.23;84.79
56721;BME280;53183;47.412;18.884;2023-01-27T04:19:37;99131.59;;;-0.14;83.70
56721;BME280;53183;47.412;18.884;2023-01-27T04:22:05;99136.03;;;-0.20;85.04
56721;BME280;53183;47.412;18.884;2023-01-27T04:24:33;99134.38;;;-0.23;85.48
56721;BME280;53183;47.412;18.884;2023-01-27T04:27:01;99132.56;;;-0.19;85.12
56721;BME280;53183;47.412;18.884;2023-01-27T04:29:30;99130.75;;;-0.14;84.41
56721;BME280;53183;47.412;18.884;2023-01-27T04:31:58;99128.19;;;-0.16;84.07
56721;BME280;53183;47.412;18.884;2023-01-27T04:34:25;99131.50;;;-0.06;83.56
56721;BME280;53183;47.412;18.884;2023-01-27T04:36:53;99129.16;;;-0.23;84.47
56721;BME280;53183;47.412;18.884;2023-01-27T04:39:21;99130.88;;;-0.24;83.91
56721;BME280;53183;47.412;18.884;2023-01-27T04:41:49;99132.87;;;-0.39;85.21
56721;BME280;53183;47.412;18.884;2023-01-27T04:44:17;99139.06;;;-0.48;85.92
56721;BME280;53183;47.412;18.884;2023-01-27T04:46:48;99146.97;;;-0.57;86.97
56721;BME280;53183;47.412;18.884;2023-01-27T04:49:15;99142.63;;;-0.57;86.71
56721;BME280;53183;47.412;18.884;2023-01-27T04:51:43;99143.72;;;-0.72;88.42
56721;BME280;53183;47.412;18.884;2023-01-27T04:54:12;99144.69;;;-0.79;89.39
56721;BME280;53183;47.412;18.884;2023-01-27T04:56:40;99148.97;;;-0.76;89.64
56721;BME280;53183;47.412;18.884;2023-01-27T04:59:11;99147.37;;;-0.85;89.76
56721;BME280;53183;47.412;18.884;2023-01-27T05:01:39;99151.78;;;-0.93;90.56
56721;BME280;53183;47.412;18.884;2023-01-27T05:04:06;99155.34;;;-0.99;91.10
56721;BME280;53183;47.412;18.884;2023-01-27T05:06:33;99158.72;;;-0.93;89.77
56721;BME280;53183;47.412;18.884;2023-01-27T05:09:01;99155.25;;;-0.96;89.94
56721;BME280;53183;47.412;18.884;2023-01-27T05:11:28;99157.00;;;-0.96;89.47
56721;BME280;53183;47.412;18.884;2023-01-27T05:13:56;99156.97;;;-0.91;89.25
56721;BME280;53183;47.412;18.884;2023-01-27T05:16:23;99164.75;;;-0.93;88.93
56721;BME280;53183;47.412;18.884;2023-01-27T05:18:51;99155.19;;;-0.88;88.63
56721;BME280;53183;47.412;18.884;2023-01-27T05:21:20;99153.63;;;-1.01;89.86
56721;BME280;53183;47.412;18.884;2023-01-27T05:23:48;99152.81;;;-1.05;90.24
56721;BME280;53183;47.412;18.884;2023-01-27T05:26:19;99147.69;;;-1.12;90.59
56721;BME280;53183;47.412;18.884;2023-01-27T05:28:47;99148.53;;;-1.12;91.25
56721;BME280;53183;47.412;18.884;2023-01-27T05:31:19;99152.94;;;-1.19;91.35
56721;BME280;53183;47.412;18.884;2023-01-27T05:33:47;99153.06;;;-1.25;91.69
56721;BME280;53183;47.412;18.884;2023-01-27T05:36:16;99153.09;;;-1.28;92.15
56721;BME280;53183;47.412;18.884;2023-01-27T05:38:44;99147.94;;;-1.31;92.09
56721;BME280;53183;47.412;18.884;2023-01-27T05:41:12;99148.72;;;-1.26;91.94
56721;BME280;53183;47.412;18.884;2023-01-27T05:43:41;99149.53;;;-1.21;90.84
56721;BME280;53183;47.412;18.884;2023-01-27T05:46:09;99152.06;;;-1.16;90.67
56721;BME280;53183;47.412;18.884;2023-01-27T05:48:38;99152.06;;;-1.14;90.17
56721;BME280;53183;47.412;18.884;2023-01-27T05:51:06;99147.75;;;-1.19;90.43
56721;BME280;53183;47.412;18.884;2023-01-27T05:53:34;99153.91;;;-1.26;91.10
56721;BME280;53183;47.412;18.884;2023-01-27T05:56:02;99158.12;;;-1.17;90.35
56721;BME280;53183;47.412;18.884;2023-01-27T05:58:30;99159.12;;;-1.27;90.53
56721;BME280;53183;47.412;18.884;2023-01-27T06:01:11;99153.06;;;-1.25;90.31
56721;BME280;53183;47.412;18.884;2023-01-27T06:03:39;99156.47;;;-1.23;90.24
56721;BME280;53183;47.412;18.884;2023-01-27T06:06:07;99160.03;;;-1.33;90.66
56721;BME280;53183;47.412;18.884;2023-01-27T06:08:36;99158.34;;;-1.35;91.63
56721;BME280;53183;47.412;18.884;2023-01-27T06:11:04;99162.63;;;-1.31;91.06
56721;BME280;53183;47.412;18.884;2023-01-27T06:13:31;99155.78;;;-1.38;91.93
56721;BME280;53183;47.412;18.884;2023-01-27T06:16:02;99161.81;;;-1.36;92.79
56721;BME280;53183;47.412;18.884;2023-01-27T06:18:30;99150.59;;;-1.38;93.21
56721;BME280;53183;47.412;18.884;2023-01-27T06:20:58;99149.75;;;-1.40;93.01
56721;BME280;53183;47.412;18.884;2023-01-27T06:23:26;99148.91;;;-1.41;93.73
56721;BME280;53183;47.412;18.884;2023-01-27T06:25:54;99149.66;;;-1.33;93.68
56721;BME280;53183;47.412;18.884;2023-01-27T06:28:22;99142.72;;;-1.29;93.59
56721;BME280;53183;47.412;18.884;2023-01-27T06:30:56;99146.09;;;-1.21;92.11
56721;BME280;53183;47.412;18.884;2023-01-27T06:33:30;99150.34;;;-1.19;92.21
56721;BME280;53183;47.412;18.884;2023-01-27T06:36:01;99146.84;;;-1.13;92.29
56721;BME280;53183;47.412;18.884;2023-01-27T06:38:29;99151.19;;;-1.13;91.55
56721;BME280;53183;47.412;18.884;2023-01-27T06:40:56;99155.37;;;-1.03;91.12
56721;BME280;53183;47.412;18.884;2023-01-27T06:43:24;99148.44;;;-1.01;89.03
56721;BME280;53183;47.412;18.884;2023-01-27T06:45:51;99148.37;;;-0.97;88.95
56721;BME280;53183;47.412;18.884;2023-01-27T06:48:19;99151.81;;;-0.96;88.35
56721;BME280;53183;47.412;18.884;2023-01-27T06:50:47;99156.91;;;-0.87;88.49
56721;BME280;53183;47.412;18.884;2023-01-27T06:53:14;99155.00;;;-0.74;87.26
56721;BME280;53183;47.412;18.884;2023-01-27T06:55:41;99160.06;;;-0.66;85.36
56721;BME280;53183;47.412;18.884;2023-01-27T06:58:10;99161.69;;;-0.58;85.70
56721;BME280;53183;47.412;18.884;2023-01-27T07:00:38;99157.41;;;-0.60;83.91
56721;BME280;53183;47.412;18.884;2023-01-27T07:03:07;99157.19;;;-0.47;83.72
56721;BME280;53183;47.412;18.884;2023-01-27T07:05:36;99162.25;;;-0.36;83.51
56721;BME280;53183;47.412;18.884;2023-01-27T07:08:04;99162.22;;;-0.33;82.48
56721;BME280;53183;47.412;18.884;2023-01-27T07:10:31;99162.06;;;-0.25;82.52
56721;BME280;53183;47.412;18.884;2023-01-27T07:13:06;99163.59;;;-0.13;79.52
56721;BME280;53183;47.412;18.884;2023-01-27T07:15:34;99158.94;;;0.10;77.52
56721;BME280;53183;47.412;18.884;2023-01-27T07:18:02;99157.03;;;0.20;76.99
56721;BME280;53183;47.412;18.884;2023-01-27T07:20:30;99157.13;;;0.12;77.66
56721;BME280;53183;47.412;18.884;2023-01-27T07:23:06;99169.13;;;0.21;77.14
56721;BME280;53183;47.412;18.884;2023-01-27T07:25:34;99164.53;;;0.35;75.48
56721;BME280;53183;47.412;18.884;2023-01-27T07:28:01;99163.53;;;0.44;75.75
56721;BME280;53183;47.412;18.884;2023-01-27T07:30:29;99164.19;;;0.55;74.58
56721;BME280;53183;47.412;18.884;2023-01-27T07:33:01;99165.97;;;0.53;74.50
56721;BME280;53183;47.412;18.884;2023-01-27T07:35:29;99167.12;;;0.35;75.61
56721;BME280;53183;47.412;18.884;2023-01-27T07:37:56;99177.28;;;0.49;75.49
56721;BME280;53183;47.412;18.884;2023-01-27T07:40:24;99167.78;;;0.48;76.34
56721;BME280;53183;47.412;18.884;2023-01-27T07:42:51;99163.37;;;0.53;76.33
56721;BME280;53183;47.412;18.884;2023-01-27T07:45:19;99164.06;;;0.61;75.81
56721;BME280;53183;47.412;18.884;2023-01-27T07:47:46;99167.44;;;0.66;75.05
56721;BME280;53183;47.412;18.884;2023-01-27T07:50:14;99160.34;;;0.75;75.36
56721;BME280;53183;47.412;18.884;2023-01-27T07:52:41;99155.19;;;0.72;75.52
56721;BME280;53183;47.412;18.884;2023-01-27T07:55:09;99155.19;;;0.73;75.11
56721;BME280;53183;47.412;18.884;2023-01-27T07:57:37;99147.22;;;0.81;76.52
56721;BME280;53183;47.412;18.884;2023-01-27T08:00:04;99150.78;;;0.77;76.29
56721;BME280;53183;47.412;18.884;2023-01-27T08:02:38;99154.97;;;0.82;76.48
56721;BME280;53183;47.412;18.884;2023-01-27T08:05:05;99153.28;;;0.81;76.62
56721;BME280;53183;47.412;18.884;2023-01-27T08:07:33;99165.25;;;0.90;75.37
56721;BME280;53183;47.412;18.884;2023-01-27T08:10:00;99155.59;;;0.95;74.55
56721;BME280;53183;47.412;18.884;2023-01-27T08:12:28;99162.59;;;0.91;76.85
56721;BME280;53183;47.412;18.884;2023-01-27T08:14:56;99161.53;;;1.02;75.60
56721;BME280;53183;47.412;18.884;2023-01-27T08:17:23;99157.66;;;1.21;74.51
56721;BME280;53183;47.412;18.884;2023-01-27T08:19:50;99154.03;;;1.28;74.06
56721;BME280;53183;47.412;18.884;2023-01-27T08:22:18;99164.44;;;1.28;74.35
56721;BME280;53183;47.412;18.884;2023-01-27T08:24:48;99165.63;;;1.13;77.03
56721;BME280;53183;47.412;18.884;2023-01-27T08:27:16;99168.28;;;1.12;75.54
56721;BME280;53183;47.412;18.884;2023-01-27T08:29:43;99163.03;;;1.13;76.01
56721;BME280;53183;47.412;18.884;2023-01-27T08:32:11;99167.41;;;1.11;76.66
56721;BME280;53183;47.412;18.884;2023-01-27T08:34:41;99168.00;;;1.26;76.03
56721;BME280;53183;47.412;18.884;2023-01-27T08:37:08;99162.00;;;1.22;76.88
56721;BME280;53183;47.412;18.884;2023-01-27T08:39:36;99162.81;;;1.24;76.57
56721;BME280;53183;47.412;18.884;2023-01-27T08:42:03;99164.63;;;1.21;77.27
56721;BME280;53183;47.412;18.884;2023-01-27T08:44:31;99165.44;;;1.23;78.30
56721;BME280;53183;47.412;18.884;2023-01-27T08:46:58;99166.91;;;1.36;78.13
56721;BME280;53183;47.412;18.884;2023-01-27T08:49:26;99171.19;;;1.38;78.98
56721;BME280;53183;47.412;18.884;2023-01-27T08:51:53;99174.34;;;1.51;77.26
56721;BME280;53183;47.412;18.884;2023-01-27T08:54:20;99170.56;;;1.66;77.44
56721;BME280;53183;47.412;18.884;2023-01-27T08:56:48;99173.13;;;1.68;76.66
56721;BME280;53183;47.412;18.884;2023-01-27T08:59:15;99173.13;;;1.68;76.47
56721;BME280;53183;47.412;18.884;2023-01-27T09:01:42;99177.53;;;1.66;76.81
56721;BME280;53183;47.412;18.884;2023-01-27T09:04:10;99182.75;;;1.66;78.31
56721;BME280;53183;47.412;18.884;2023-01-27T09:06:37;99173.44;;;1.54;79.62
56721;BME280;53183;47.412;18.884;2023-01-27T09:09:05;99178.50;;;1.61;76.58
56721;BME280;53183;47.412;18.884;2023-01-27T09:11:39;99179.38;;;1.60;76.22
56721;BME280;53183;47.412;18.884;2023-01-27T09:14:06;99187.94;;;1.66;75.91
56721;BME280;53183;47.412;18.884;2023-01-27T09:16:34;99193.41;;;1.55;77.09
56721;BME280;53183;47.412;18.884;2023-01-27T09:19:01;99185.34;;;1.66;75.30
56721;BME280;53183;47.412;18.884;2023-01-27T09:21:30;99184.56;;;1.60;76.94
56721;BME280;53183;47.412;18.884;2023-01-27T09:23:57;99192.53;;;1.54;76.21
56721;BME280;53183;47.412;18.884;2023-01-27T09:26:25;99187.38;;;1.51;77.17
56721;BME280;53183;47.412;18.884;2023-01-27T09:28:55;99192.69;;;1.48;76.71
56721;BME280;53183;47.412;18.884;2023-01-27T09:31:22;99195.44;;;1.40;77.51
56721;BME280;53183;47.412;18.884;2023-01-27T09:33:50;99196.06;;;1.52;78.15
56721;BME280;53183;47.412;18.884;2023-01-27T09:36:18;99202.13;;;1.52;76.38
56721;BME280;53183;47.412;18.884;2023-01-27T09:38:48;99203.72;;;1.59;76.72
56721;BME280;53183;47.412;18.884;2023-01-27T09:55:26;99197.38;;;1.71;73.13
56721;BME280;53183;47.412;18.884;2023-01-27T09:58:05;99195.09;;;1.56;73.07
56721;BME280;53183;47.412;18.884;2023-01-27T10:16:40;99189.47;;;2.11;72.99
56721;BME280;53183;47.412;18.884;2023-01-27T10:21:56;99184.63;;;1.96;73.47
56721;BME280;53183;47.412;18.884;2023-01-27T10:24:35;99186.56;;;1.88;72.69
56721;BME280;53183;47.412;18.884;2023-01-27T10:27:20;99183.25;;;1.81;77.47
56721;BME280;53183;47.412;18.884;2023-01-27T10:34:47;99178.87;;;1.82;79.16
56721;BME280;53183;47.412;18.884;2023-01-27T10:39:58;99184.16;;;1.40;82.08
56721;BME280;53183;47.412;18.884;2023-01-27T10:45:29;99191.97;;;1.40;81.02
56721;BME280;53183;47.412;18.884;2023-01-27T10:50:36;99181.38;;;1.07;82.56
56721;BME280;53183;47.412;18.884;2023-01-27T11:01:40;99170.91;;;1.10;86.31
56721;BME280;53183;47.412;18.884;2023-01-27T11:06:46;99169.09;;;1.15;87.01
56721;BME280;53183;47.412;18.884;2023-01-27T11:11:51;99163.00;;;1.15;86.29
56721;BME280;53183;47.412;18.884;2023-01-27T11:14:30;99163.75;;;1.20;86.26
56721;BME280;53183;47.412;18.884;2023-01-27T11:17:09;99153.34;;;1.20;86.13
56721;BME280;53183;47.412;18.884;2023-01-27T11:19:45;99151.28;;;1.34;86.62
56721;BME280;53183;47.412;18.884;2023-01-27T11:22:31;99153.22;;;1.26;86.78
56721;BME280;53183;47.412;18.884;2023-01-27T11:25:04;99161.59;;;1.40;86.51
56721;BME280;53183;47.412;18.884;2023-01-27T11:27:39;99150.44;;;1.35;84.70
56721;BME280;53183;47.412;18.884;2023-01-27T11:30:14;99155.31;;;1.49;84.05
56721;BME280;53183;47.412;18.884;2023-01-27T11:33:02;99147.47;;;1.51;85.20
56721;BME280;53183;47.412;18.884;2023-01-27T11:35:31;99149.47;;;1.39;85.14
56721;BME280;53183;47.412;18.884;2023-01-27T11:37:58;99151.03;;;1.47;87.09
56721;BME280;53183;47.412;18.884;2023-01-27T11:40:41;99141.22;;;1.58;85.76
56721;BME280;53183;47.412;18.884;2023-01-27T11:43:10;99138.00;;;1.48;85.68
56721;BME280;53183;47.412;18.884;2023-01-27T11:45:41;99134.09;;;1.27;85.91
56721;BME280;53183;47.412;18.884;2023-01-27T11:48:12;99133.94;;;1.35;86.76
56721;BME280;53183;47.412;18.884;2023-01-27T11:50:40;99121.84;;;1.32;87.39
56721;BME280;53183;47.412;18.884;2023-01-27T11:53:29;99123.63;;;1.30;87.32
56721;BME280;53183;47.412;18.884;2023-01-27T11:56:03;99118.94;;;1.46;87.31
56721;BME280;53183;47.412;18.884;2023-01-27T11:58:35;99119.78;;;1.48;86.74
56721;BME280;53183;47.412;18.884;2023-01-27T12:01:09;99111.84;;;1.51;86.50
56721;BME280;53183;47.412;18.884;2023-01-27T12:06:30;99091.53;;;3.54;100.00
56721;BME280;53183;47.412;18.884;2023-01-27T12:08:59;99095.94;;;6.95;89.21
56721;BME280;53183;47.412;18.884;2023-01-27T12:11:27;99092.56;;;7.67;65.83
56721;BME280;53183;47.412;18.884;2023-01-27T12:13:56;99090.81;;;6.32;63.98
56721;BME280;53183;47.412;18.884;2023-01-27T12:18:58;99090.66;;;4.33;72.74
56721;BME280;53183;47.412;18.884;2023-01-27T12:21:47;99088.81;;;3.29;76.67
56721;BME280;53183;47.412;18.884;2023-01-27T12:24:29;99084.00;;;2.87;79.09
56721;BME280;53183;47.412;18.884;2023-01-27T12:26:58;99080.56;;;2.23;83.26
56721;BME280;53183;47.412;18.884;2023-01-27T12:29:28;99077.69;;;2.01;85.59
56721;BME280;53183;47.412;18.884;2023-01-27T12:31:59;99088.56;;;1.82;84.42
56721;BME280;53183;47.412;18.884;2023-01-27T12:34:28;99076.81;;;1.64;85.17
56721;BME280;53183;47.412;18.884;2023-01-27T12:36:57;99071.59;;;1.64;85.70
56721;BME280;53183;47.412;18.884;2023-01-27T12:39:26;99067.91;;;1.75;87.21
56721;BME280;53183;47.412;18.884;2023-01-27T12:41:56;99070.53;;;1.37;87.30
56721;BME280;53183;47.412;18.884;2023-01-27T12:44:23;99067.75;;;1.45;88.22
56721;BME280;53183;47.412;18.884;2023-01-27T12:46:56;99068.69;;;1.43;86.26
56721;BME280;53183;47.412;18.884;2023-01-27T12:49:28;99071.84;;;1.55;87.51
56721;BME280;53183;47.412;18.884;2023-01-27T12:51:59;99068.69;;;1.41;86.49
56721;BME280;53183;47.412;18.884;2023-01-27T12:54:28;99066.62;;;1.18;87.84
56721;BME280;53183;47.412;18.884;2023-01-27T12:56:59;99074.59;;;1.12;88.82
56721;BME280;53183;47.412;18.884;2023-01-27T12:59:27;99074.50;;;1.16;89.52
56721;BME280;53183;47.412;18.884;2023-01-27T13:01:59;99070.06;;;1.20;89.29
56721;BME280;53183;47.412;18.884;2023-01-27T13:04:27;99067.22;;;1.31;89.41
56721;BME280;53183;47.412;18.884;2023-01-27T13:07:01;99065.31;;;1.39;89.78
56721;BME280;53183;47.412;18.884;2023-01-27T13:09:45;99077.47;;;1.37;89.63
56721;BME280;53183;47.412;18.884;2023-01-27T13:12:15;99076.50;;;1.43;90.21
56721;BME280;53183;47.412;18.884;2023-01-27T13:14:50;99074.06;;;1.35;90.49
56721;BME280;53183;47.412;18.884;2023-01-27T13:20:01;99081.72;;;1.41;92.17
56721;BME280;53183;47.412;18.884;2023-01-27T13:22:29;99082.16;;;1.23;91.79
56721;BME280;53183;47.412;18.884;2023-01-27T13:25:02;99077.75;;;1.26;91.90
56721;BME280;53183;47.412;18.884;2023-01-27T13:27:31;99085.81;;;1.14;93.31
56721;BME280;53183;47.412;18.884;2023-01-27T13:30:04;99096.22;;;1.14;92.57
56721;BME280;53183;47.412;18.884;2023-01-27T13:32:33;99092.78;;;1.13;93.35
56721;BME280;53183;47.412;18.884;2023-01-27T13:35:04;99097.28;;;1.05;93.73
56721;BME280;53183;47.412;18.884;2023-01-27T13:37:36;99095.56;;;1.04;95.13
56721;BME280;53183;47.412;18.884;2023-01-27T13:45:13;99090.28;;;1.09;94.75
56721;BME280;53183;47.412;18.884;2023-01-27T13:52:45;99097.72;;;1.26;93.02
56721;BME280;53183;47.412;18.884;2023-01-27T13:55:15;99108.66;;;1.40;93.39
56721;BME280;53183;47.412;18.884;2023-01-27T13:57:50;99106.69;;;1.50;92.21
56721;BME280;53183;47.412;18.884;2023-01-27T14:00:21;99104.69;;;1.61;91.66
56721;BME280;53183;47.412;18.884;2023-01-27T14:02:59;99101.09;;;1.67;89.90
56721;BME280;53183;47.412;18.884;2023-01-27T14:18:33;99106.34;;;2.01;86.86
56721;BME280;53183;47.412;18.884;2023-01-27T14:21:06;99098.69;;;1.95;88.01
56721;BME280;53183;47.412;18.884;2023-01-27T14:31:11;99109.03;;;1.62;88.25
56721;BME280;53183;47.412;18.884;2023-01-27T14:36:28;99111.13;;;1.46;89.08
56721;BME280;53183;47.412;18.884;2023-01-27T14:39:12;99107.81;;;1.39;90.48
56721;BME280;53183;47.412;18.884;2023-01-27T14:41:49;99100.25;;;1.29;90.39
56721;BME280;53183;47.412;18.884;2023-01-27T14:44:29;99096.59;;;1.36;90.31
56721;BME280;53183;47.412;18.884;2023-01-27T14:52:22;99092.28;;;0.96;92.47
56721;BME280;53183;47.412;18.884;2023-01-27T14:54:56;99095.88;;;0.90;92.94
56721;BME280;53183;47.412;18.884;2023-01-27T14:57:36;99091.56;;;0.89;92.43
56721;BME280;53183;47.412;18.884;2023-01-27T15:02:56;99101.19;;;0.84;93.89